York, South Carolina
Current Conditions -  °F | °C
As of 2:32 PM on Monday 22 Dec 2014 (Local Time) from KUZA Reporting Station
Haze Haze  
Wind Chill: 34°   Ceiling: 400
Heat Index: 39°   Visibility: 2.5mi
Dew Point: 38°   Wind: 7mph
Humidity: 96%   Direction: 40°NE
Pressure: 30.03"   Gusts: NA
Location:  34.99°N, 81.24°W
Report Text: KUZA 221932Z AUTO 04006KT 2 1/2SM BR OVC004 04/03 A3003 RMK AO2 T00390033
Loading
Personal Weather Stations






























Interactive Weather Map New forecast layout! Learn more

10-Day Weather Forecast

Advertisements
Track Severe Weather on mobile